Aarschot, Belgium
Current Conditions -  °F | °C
As of 9:20 AM on Thursday 18 Dec 2014 (Local Time) from EBBR Reporting Station
Drizzle Drizzle  
Wind Chill: 52°   Ceiling: 700
Heat Index: 52°   Visibility: 2.1mi
Dew Point: 50°   Wind: 14mph
Humidity: 94%   Direction: 250°WSW
Pressure: 29.85"   Gusts: NA
Location:  50.99°N, 4.84°E
Report Text: EBBR 180820Z 25012KT 3500 -DZ SCT005 BKN007 11/10 Q1011 BECMG 25015G25KT
Loading
Personal Weather Stations






























Interactive Weather Map New forecast layout! Learn more

10-Day Weather Forecast

Advertisements
Track Severe Weather on mobile